Time;durP1;ratioP1;P1;durP2;ratioP2;P2;SDS_P1;SDS_P2;PMS_P1;PMS_P2;Temp;Humidity;BMP_temperature;BMP_pressure;BME280_temperature;BME280_humidity;BME280_pressure;Samples;Min_cycle;Max_cycle;Signal;HPM_P1;HPM_P2
2021/05/21 00:28:28;;;;;;;8.68;3.95;;;;;;;;;;5158999;27;20087;-66
2021/05/21 00:30:54;;;;;;;5.55;3.90;;;;;;;;;;5140809;27;20139;-66
2021/05/21 00:33:20;;;;;;;4.97;4.18;;;;;;;;;;5179503;27;20066;-66
2021/05/21 00:35:45;;;;;;;7.37;3.75;;;;;;;;;;5180184;27;20470;-67
2021/05/21 00:38:11;;;;;;;5.68;4.10;;;;;;;;;;5180213;27;20063;-66
2021/05/21 00:40:37;;;;;;;9.15;3.85;;;;;;;;;;5180140;27;20094;-67
2021/05/21 00:43:03;;;;;;;4.15;3.55;;;;;;;;;;5161189;27;20176;-67
2021/05/21 00:45:29;;;;;;;5.82;4.03;;;;;;;;;;5180040;27;20267;-67
2021/05/21 00:47:55;;;;;;;4.60;3.70;;;;;;;;;;5179936;27;20539;-66
2021/05/21 00:50:21;;;;;;;5.53;4.00;;;;;;;;;;5180426;27;20131;-67
2021/05/21 00:52:47;;;;;;;5.72;3.72;;;;;;;;;;5180158;27;20088;-66
2021/05/21 00:55:13;;;;;;;6.53;3.72;;;;;;;;;;5180042;27;20108;-67
2021/05/21 00:57:41;;;;;;;6.62;3.70;;;;;;;;;;5180200;27;20466;-67
2021/05/21 01:00:07;;;;;;;3.37;2.83;;;;;;;;;;5179676;27;20489;-67
2021/05/21 01:02:33;;;;;;;7.00;3.37;;;;;;;;;;5178208;27;20078;-67
2021/05/21 01:04:59;;;;;;;6.37;3.10;;;;;;;;;;5180023;27;20493;-67
2021/05/21 01:07:25;;;;;;;6.43;3.58;;;;;;;;;;5179777;27;20078;-67
2021/05/21 01:09:51;;;;;;;4.53;3.03;;;;;;;;;;5180380;27;20169;-67
2021/05/21 01:12:17;;;;;;;4.80;3.20;;;;;;;;;;5160916;27;20090;-67
2021/05/21 01:14:53;;;;;;;6.03;3.00;;;;;;;;;;5180025;27;20103;-68
2021/05/21 01:17:20;;;;;;;5.30;3.30;;;;;;;;;;5179806;27;20075;-67
2021/05/21 01:19:46;;;;;;;4.78;2.60;;;;;;;;;;5180008;27;20090;-67
2021/05/21 01:22:12;;;;;;;3.95;2.65;;;;;;;;;;5178356;27;20188;-67
2021/05/21 01:24:38;;;;;;;4.20;2.60;;;;;;;;;;5161092;27;20096;-68
2021/05/21 01:27:05;;;;;;;3.45;2.53;;;;;;;;;;5178037;27;20434;-67
2021/05/21 01:29:31;;;;;;;8.20;3.08;;;;;;;;;;5179951;27;20164;-67
2021/05/21 01:31:57;;;;;;;4.45;2.70;;;;;;;;;;5161013;27;20085;-66
2021/05/21 01:34:23;;;;;;;2.35;1.90;;;;;;;;;;5180059;27;20074;-66
2021/05/21 01:36:49;;;;;;;5.30;2.75;;;;;;;;;;5179830;27;20086;-66
2021/05/21 01:39:15;;;;;;;3.65;2.10;;;;;;;;;;5160806;27;20524;-66
2021/05/21 01:41:41;;;;;;;6.22;2.70;;;;;;;;;;5180061;27;20085;-66
2021/05/21 01:44:12;;;;;;;3.10;2.60;;;;;;;;;;5161149;27;20528;-66
2021/05/21 01:46:38;;;;;;;3.15;2.55;;;;;;;;;;5160601;27;20073;-66
2021/05/21 01:49:04;;;;;;;4.15;2.80;;;;;;;;;;5160913;27;20098;-67
2021/05/21 01:51:30;;;;;;;2.85;2.20;;;;;;;;;;5160653;27;20094;-67
2021/05/21 01:54:15;;;;;;;4.03;2.55;;;;;;;;;;5160958;27;20089;-67
2021/05/21 01:56:41;;;;;;;5.82;2.35;;;;;;;;;;5179970;27;20074;-66
2021/05/21 01:59:07;;;;;;;5.10;2.55;;;;;;;;;;5179810;27;20102;-67
2021/05/21 02:01:33;;;;;;;4.35;2.30;;;;;;;;;;5180077;27;20428;-67
2021/05/21 02:03:59;;;;;;;3.45;2.53;;;;;;;;;;5180117;27;20085;-67
2021/05/21 02:06:26;;;;;;;2.87;2.25;;;;;;;;;;5179649;27;20100;-67
2021/05/21 02:08:52;;;;;;;3.60;2.45;;;;;;;;;;5180250;27;20069;-66
2021/05/21 02:11:18;;;;;;;3.55;2.40;;;;;;;;;;5160535;27;20097;-66
2021/05/21 02:13:44;;;;;;;7.37;2.40;;;;;;;;;;5179847;27;20474;-66
2021/05/21 02:16:09;;;;;;;6.10;2.42;;;;;;;;;;5160569;27;20073;-66
2021/05/21 02:18:36;;;;;;;3.37;2.35;;;;;;;;;;5179657;27;20102;-67
2021/05/21 02:21:05;;;;;;;3.92;2.45;;;;;;;;;;5181020;27;20074;-67
2021/05/21 02:23:31;;;;;;;5.05;2.20;;;;;;;;;;5162013;27;20105;-67
2021/05/21 02:25:57;;;;;;;3.70;2.10;;;;;;;;;;5181115;27;20109;-67
2021/05/21 02:28:23;;;;;;;3.78;2.75;;;;;;;;;;5180825;27;20581;-67
2021/05/21 02:30:48;;;;;;;5.28;2.60;;;;;;;;;;5180964;27;20097;-67
2021/05/21 02:33:14;;;;;;;3.70;2.22;;;;;;;;;;5181065;27;20082;-67
2021/05/21 02:35:40;;;;;;;6.75;3.03;;;;;;;;;;5161756;27;20095;-69
2021/05/21 02:38:06;;;;;;;4.30;2.50;;;;;;;;;;5179471;27;20089;-67
2021/05/21 02:40:32;;;;;;;3.40;2.60;;;;;;;;;;5162025;27;20082;-68
2021/05/21 02:42:58;;;;;;;4.75;2.42;;;;;;;;;;5181177;27;20077;-70
2021/05/21 02:45:24;;;;;;;2.70;2.22;;;;;;;;;;5181387;27;20070;-68
2021/05/21 02:47:50;;;;;;;9.55;2.70;;;;;;;;;;5161749;27;20089;-67
2021/05/21 02:50:16;;;;;;;3.72;2.00;;;;;;;;;;5180867;27;20102;-68
2021/05/21 02:52:42;;;;;;;6.53;3.08;;;;;;;;;;5180924;27;20078;-68
2021/05/21 02:55:09;;;;;;;3.72;2.85;;;;;;;;;;5161953;27;20082;-66
2021/05/21 02:57:35;;;;;;;4.07;2.30;;;;;;;;;;5180965;27;20591;-66
2021/05/21 03:00:02;;;;;;;5.00;2.20;;;;;;;;;;5180785;27;20126;-66
2021/05/21 03:02:28;;;;;;;6.97;2.37;;;;;;;;;;5180782;27;20190;-66
2021/05/21 03:04:53;;;;;;;6.93;2.25;;;;;;;;;;5180714;27;20116;-67
2021/05/21 03:07:19;;;;;;;3.12;2.37;;;;;;;;;;5180858;27;20077;-66
2021/05/21 03:09:46;;;;;;;3.87;2.40;;;;;;;;;;5180809;27;20499;-66
2021/05/21 03:12:12;;;;;;;4.07;2.35;;;;;;;;;;5161621;27;20070;-67
2021/05/21 03:14:38;;;;;;;5.60;2.20;;;;;;;;;;5180730;27;20101;-65
2021/05/21 03:17:04;;;;;;;2.28;2.08;;;;;;;;;;5180974;27;20069;-64
2021/05/21 03:19:30;;;;;;;6.25;2.03;;;;;;;;;;5180696;27;20106;-66
2021/05/21 03:21:56;;;;;;;18.17;2.72;;;;;;;;;;5180374;27;20409;-65
2021/05/21 03:24:23;;;;;;;4.45;1.92;;;;;;;;;;5180702;27;20121;-67
2021/05/21 03:26:48;;;;;;;3.05;2.10;;;;;;;;;;5180126;27;20081;-66
2021/05/21 03:29:15;;;;;;;6.53;1.80;;;;;;;;;;5180654;27;20475;-66
2021/05/21 03:31:42;;;;;;;3.22;2.35;;;;;;;;;;5180160;27;20085;-66
2021/05/21 03:34:08;;;;;;;3.65;2.28;;;;;;;;;;5160803;27;20085;-66
2021/05/21 03:36:34;;;;;;;3.00;2.10;;;;;;;;;;5159656;27;20161;-66
2021/05/21 03:38:59;;;;;;;5.70;2.33;;;;;;;;;;5161656;27;20116;-66
2021/05/21 03:41:25;;;;;;;7.10;2.30;;;;;;;;;;5178485;27;20369;-64
2021/05/21 03:43:51;;;;;;;7.60;2.40;;;;;;;;;;5180395;27;20099;-66
2021/05/21 03:46:17;;;;;;;1.70;1.60;;;;;;;;;;5180125;27;20180;-66
2021/05/21 03:48:43;;;;;;;5.70;2.35;;;;;;;;;;5178575;27;20109;-66
2021/05/21 03:51:09;;;;;;;7.25;2.62;;;;;;;;;;5180201;27;20508;-66
2021/05/21 03:53:35;;;;;;;5.12;2.10;;;;;;;;;;5180455;27;20081;-67
2021/05/21 03:56:01;;;;;;;2.30;2.10;;;;;;;;;;5180354;27;20102;-68
2021/05/21 03:58:26;;;;;;;2.45;1.83;;;;;;;;;;5144355;27;20082;-68
2021/05/21 04:00:54;;;;;;;5.45;2.72;;;;;;;;;;5161372;27;20519;-67
2021/05/21 04:03:20;;;;;;;3.15;1.90;;;;;;;;;;5180429;27;20409;-67
2021/05/21 04:05:46;;;;;;;4.18;1.90;;;;;;;;;;5161365;27;20101;-68
2021/05/21 04:08:12;;;;;;;3.40;2.15;;;;;;;;;;5178439;27;20110;-67
2021/05/21 04:10:38;;;;;;;1.65;1.52;;;;;;;;;;5180308;27;20146;-67
2021/05/21 04:13:04;;;;;;;3.45;1.73;;;;;;;;;;5180057;27;20105;-67
2021/05/21 04:15:30;;;;;;;9.25;1.95;;;;;;;;;;5180588;27;20261;-67
2021/05/21 04:17:55;;;;;;;4.20;2.05;;;;;;;;;;5180381;27;20085;-66
2021/05/21 04:20:21;;;;;;;7.32;2.53;;;;;;;;;;5180297;27;20069;-66
2021/05/21 04:22:47;;;;;;;4.82;2.10;;;;;;;;;;5180111;27;20181;-67
2021/05/21 04:25:13;;;;;;;2.47;1.50;;;;;;;;;;5179970;27;20094;-67
2021/05/21 04:27:39;;;;;;;1.60;1.50;;;;;;;;;;5180093;27;20098;-67
2021/05/21 04:30:06;;;;;;;2.40;1.77;;;;;;;;;;5180164;27;20108;-67
2021/05/21 04:32:32;;;;;;;3.15;1.80;;;;;;;;;;5161376;27;20089;-67
2021/05/21 04:34:58;;;;;;;8.45;2.00;;;;;;;;;;5144245;27;20125;-67
2021/05/21 04:37:24;;;;;;;2.92;1.80;;;;;;;;;;5180218;27;20081;-67
2021/05/21 04:39:50;;;;;;;2.67;1.73;;;;;;;;;;5180759;27;20097;-67
2021/05/21 04:42:16;;;;;;;7.47;2.12;;;;;;;;;;5180368;27;20102;-67
2021/05/21 04:44:42;;;;;;;1.70;1.60;;;;;;;;;;5180648;27;20093;-67
2021/05/21 04:47:07;;;;;;;8.60;1.80;;;;;;;;;;5161174;27;20075;-67
2021/05/21 04:49:34;;;;;;;3.92;1.42;;;;;;;;;;5180268;27;20588;-67
2021/05/21 04:52:08;;;;;;;1.95;1.70;;;;;;;;;;5161417;27;20462;-67
2021/05/21 04:54:35;;;;;;;2.00;1.80;;;;;;;;;;5180568;27;20169;-67
2021/05/21 04:57:01;;;;;;;3.10;1.65;;;;;;;;;;5160868;27;20089;-66
2021/05/21 04:59:27;;;;;;;5.18;1.92;;;;;;;;;;5160633;27;20097;-74
2021/05/21 05:01:53;;;;;;;2.03;1.73;;;;;;;;;;5161523;27;20082;-67
2021/05/21 05:04:19;;;;;;;3.42;1.90;;;;;;;;;;5180295;27;20109;-68
2021/05/21 05:06:45;;;;;;;1.70;1.60;;;;;;;;;;5161275;27;20112;-70
2021/05/21 05:09:12;;;;;;;4.80;2.30;;;;;;;;;;5161774;27;20093;-68
2021/05/21 05:11:41;;;;;;;6.40;2.10;;;;;;;;;;5160992;27;20085;-68
2021/05/21 05:14:08;;;;;;;8.82;1.90;;;;;;;;;;5180289;27;20082;-69
2021/05/21 05:16:34;;;;;;;2.03;1.83;;;;;;;;;;5179978;27;20476;-69
2021/05/21 05:19:00;;;;;;;2.92;1.95;;;;;;;;;;5161019;27;20097;-69
2021/05/21 05:21:27;;;;;;;1.73;1.60;;;;;;;;;;5161171;27;20080;-69
2021/05/21 05:23:54;;;;;;;6.62;2.17;;;;;;;;;;5161438;27;20181;-68
2021/05/21 05:26:20;;;;;;;4.78;1.80;;;;;;;;;;5160792;27;20102;-70
2021/05/21 05:28:49;;;;;;;4.22;2.50;;;;;;;;;;5180294;27;20105;-70
2021/05/21 05:31:16;;;;;;;1.83;1.65;;;;;;;;;;5179989;27;20085;-70
2021/05/21 05:33:42;;;;;;;2.50;2.20;;;;;;;;;;5161277;27;20078;-68
2021/05/21 05:36:08;;;;;;;4.12;1.90;;;;;;;;;;5179704;27;20092;-69
2021/05/21 05:38:34;;;;;;;7.22;2.00;;;;;;;;;;5179863;27;20085;-69
2021/05/21 05:41:00;;;;;;;3.05;2.12;;;;;;;;;;5179923;27;20058;-69
2021/05/21 05:43:26;;;;;;;2.60;1.70;;;;;;;;;;5180562;27;20070;-69
2021/05/21 05:45:52;;;;;;;1.92;1.73;;;;;;;;;;5179968;27;20113;-68
2021/05/21 05:48:19;;;;;;;2.17;1.98;;;;;;;;;;5179807;27;20479;-68
2021/05/21 05:50:46;;;;;;;6.22;2.00;;;;;;;;;;5161126;27;20088;-67
2021/05/21 05:53:12;;;;;;;13.80;2.25;;;;;;;;;;5160630;27;20086;-67
2021/05/21 05:55:41;;;;;;;2.10;1.90;;;;;;;;;;5161729;27;20094;-69
2021/05/21 05:58:08;;;;;;;2.33;1.77;;;;;;;;;;5181231;27;20513;-64
2021/05/21 06:00:35;;;;;;;1.30;1.12;;;;;;;;;;5181166;27;20081;-70
2021/05/21 06:03:10;;;;;;;2.10;1.60;;;;;;;;;;5181264;27;20177;-70
2021/05/21 06:05:37;;;;;;;4.47;2.50;;;;;;;;;;5181174;27;20602;-71
2021/05/21 06:08:05;;;;;;;4.68;2.20;;;;;;;;;;5162147;27;20089;-70
2021/05/21 06:10:31;;;;;;;3.62;1.80;;;;;;;;;;5162327;27;20083;-70
2021/05/21 06:13:07;;;;;;;8.32;2.25;;;;;;;;;;5181742;27;20173;-68
2021/05/21 06:15:34;;;;;;;3.97;1.80;;;;;;;;;;5162381;27;20172;-73
2021/05/21 06:18:00;;;;;;;1.85;1.67;;;;;;;;;;5164327;27;20077;-74
2021/05/21 06:20:27;;;;;;;2.05;1.85;;;;;;;;;;5186057;27;20520;-69
2021/05/21 06:22:53;;;;;;;2.10;1.65;;;;;;;;;;5181023;27;20550;-70
2021/05/21 06:25:22;;;;;;;2.60;1.92;;;;;;;;;;5180913;27;20273;-68
2021/05/21 06:27:48;;;;;;;5.28;2.10;;;;;;;;;;5162367;27;20413;-71
2021/05/21 06:30:14;;;;;;;5.70;1.60;;;;;;;;;;5180884;27;20082;-69
2021/05/21 06:32:42;;;;;;;2.62;2.00;;;;;;;;;;5161916;27;20081;-69
2021/05/21 06:35:09;;;;;;;2.17;1.55;;;;;;;;;;5180885;27;20101;-67
2021/05/21 06:37:36;;;;;;;2.20;2.00;;;;;;;;;;5144870;27;20062;-67
2021/05/21 06:40:02;;;;;;;2.20;2.00;;;;;;;;;;5180856;27;20082;-68
2021/05/21 06:42:28;;;;;;;2.62;2.12;;;;;;;;;;5181401;27;20082;-71
2021/05/21 06:44:54;;;;;;;3.08;2.10;;;;;;;;;;5180803;27;20205;-72
2021/05/21 06:47:20;;;;;;;1.85;1.75;;;;;;;;;;5181383;27;20092;-78
2021/05/21 06:49:47;;;;;;;2.08;1.83;;;;;;;;;;5181254;27;20428;-71
2021/05/21 06:52:14;;;;;;;4.30;2.33;;;;;;;;;;5180688;27;20082;-71
2021/05/21 06:54:44;;;;;;;2.55;1.90;;;;;;;;;;5162192;27;20101;-70
2021/05/21 06:57:10;;;;;;;1.40;1.30;;;;;;;;;;5180999;27;20081;-71
2021/05/21 06:59:36;;;;;;;1.90;1.80;;;;;;;;;;5180827;27;20179;-71
2021/05/21 07:02:02;;;;;;;2.65;1.62;;;;;;;;;;5161183;27;20523;-70
2021/05/21 07:04:28;;;;;;;3.55;1.95;;;;;;;;;;5161235;27;20192;-70
2021/05/21 07:06:54;;;;;;;11.12;2.62;;;;;;;;;;5181159;27;20085;-70
2021/05/21 07:09:20;;;;;;;3.97;2.40;;;;;;;;;;5179556;27;20433;-69
2021/05/21 07:11:46;;;;;;;4.75;2.22;;;;;;;;;;5181869;27;20078;-70
2021/05/21 07:14:13;;;;;;;1.95;1.75;;;;;;;;;;5181826;27;20200;-69
2021/05/21 07:16:40;;;;;;;0.90;0.90;;;;;;;;;;5162194;27;20094;-70
2021/05/21 07:19:06;;;;;;;1.20;1.10;;;;;;;;;;5161937;27;20120;-69
2021/05/21 07:21:32;;;;;;;1.37;1.27;;;;;;;;;;5162768;27;20213;-70
2021/05/21 07:23:57;;;;;;;1.02;1.00;;;;;;;;;;5180948;27;20422;-70
2021/05/21 07:26:25;;;;;;;2.40;1.90;;;;;;;;;;5180445;27;20094;-70
2021/05/21 07:28:53;;;;;;;1.70;1.60;;;;;;;;;;5180695;27;20082;-71
2021/05/21 07:31:19;;;;;;;2.83;1.70;;;;;;;;;;5180372;27;20492;-71
2021/05/21 07:33:45;;;;;;;2.15;1.80;;;;;;;;;;5161638;27;20093;-71
2021/05/21 07:36:10;;;;;;;2.05;1.90;;;;;;;;;;5180722;27;20500;-70
2021/05/21 07:38:36;;;;;;;3.50;1.80;;;;;;;;;;5180505;27;20092;-70
2021/05/21 07:41:03;;;;;;;11.50;2.17;;;;;;;;;;5180434;27;20207;-71
2021/05/21 07:43:29;;;;;;;3.12;2.00;;;;;;;;;;5180378;27;20094;-71
2021/05/21 07:45:56;;;;;;;3.37;2.03;;;;;;;;;;5180792;27;20517;-71
2021/05/21 07:48:24;;;;;;;4.22;1.58;;;;;;;;;;5180662;27;20648;-71
2021/05/21 07:50:49;;;;;;;1.00;0.98;;;;;;;;;;5180430;27;20497;-70
2021/05/21 07:53:15;;;;;;;1.12;1.10;;;;;;;;;;5178489;27;20100;-70
2021/05/21 07:55:41;;;;;;;3.00;1.92;;;;;;;;;;5180752;27;20161;-70
2021/05/21 07:58:09;;;;;;;1.35;1.25;;;;;;;;;;5180430;27;20116;-70
2021/05/21 08:00:35;;;;;;;4.07;2.10;;;;;;;;;;5180434;27;20073;-70
2021/05/21 08:03:01;;;;;;;5.32;1.92;;;;;;;;;;5180163;27;20090;-70
2021/05/21 08:05:26;;;;;;;3.05;1.62;;;;;;;;;;5180327;27;20108;-70
2021/05/21 08:07:52;;;;;;;1.40;1.10;;;;;;;;;;5161217;27;20492;-70
2021/05/21 08:10:19;;;;;;;1.08;0.98;;;;;;;;;;5180405;27;20161;-71
2021/05/21 08:12:45;;;;;;;3.53;1.42;;;;;;;;;;5180212;27;20473;-70
2021/05/21 08:15:11;;;;;;;2.78;2.00;;;;;;;;;;5180307;27;20105;-70
2021/05/21 08:17:37;;;;;;;4.18;1.48;;;;;;;;;;5179852;27;20073;-70
2021/05/21 08:20:04;;;;;;;2.45;1.75;;;;;;;;;;5180349;27;20105;-70
2021/05/21 08:22:30;;;;;;;4.47;1.98;;;;;;;;;;5180167;27;20163;-70
2021/05/21 08:24:56;;;;;;;7.15;2.12;;;;;;;;;;5161517;27;20170;-70
2021/05/21 08:27:21;;;;;;;4.15;2.10;;;;;;;;;;5179967;27;20105;-70
2021/05/21 08:29:47;;;;;;;2.55;2.08;;;;;;;;;;5180185;27;20090;-70
2021/05/21 08:32:13;;;;;;;2.03;1.30;;;;;;;;;;5180038;27;20497;-71
2021/05/21 08:34:39;;;;;;;5.78;2.28;;;;;;;;;;5180570;27;20085;-71
2021/05/21 08:37:05;;;;;;;1.95;1.80;;;;;;;;;;5180133;27;20076;-70
2021/05/21 08:39:31;;;;;;;1.12;1.00;;;;;;;;;;5180231;27;20203;-71
2021/05/21 08:41:58;;;;;;;4.15;2.80;;;;;;;;;;5180420;27;20141;-71
2021/05/21 08:44:26;;;;;;;2.25;1.70;;;;;;;;;;5180217;27;20113;-71
2021/05/21 08:46:59;;;;;;;15.98;3.97;;;;;;;;;;5161670;27;20089;-70
2021/05/21 08:49:24;;;;;;;1.70;1.60;;;;;;;;;;5161410;27;20105;-70
2021/05/21 08:51:50;;;;;;;2.47;1.77;;;;;;;;;;5160951;27;20264;-71
2021/05/21 08:54:19;;;;;;;2.47;1.98;;;;;;;;;;5180075;27;20138;-70
2021/05/21 08:56:45;;;;;;;8.90;2.75;;;;;;;;;;5180079;27;20089;-70
2021/05/21 08:59:11;;;;;;;1.58;1.45;;;;;;;;;;5178478;27;20429;-70
2021/05/21 09:01:58;;;;;;;2.40;2.20;;;;;;;;;;5143644;27;20180;-70
2021/05/21 09:04:35;;;;;;;6.20;2.08;;;;;;;;;;5180101;27;20188;-70
2021/05/21 09:07:01;;;;;;;1.52;1.42;;;;;;;;;;5180159;27;20077;-70
2021/05/21 09:09:29;;;;;;;1.55;1.45;;;;;;;;;;5161043;27;20112;-71
2021/05/21 09:11:55;;;;;;;3.40;2.03;;;;;;;;;;5179927;27;20488;-71
2021/05/21 09:14:21;;;;;;;2.10;1.90;;;;;;;;;;5180331;27;20108;-70
2021/05/21 09:16:48;;;;;;;2.15;1.85;;;;;;;;;;5179958;27;20058;-70
2021/05/21 09:19:18;;;;;;;3.37;2.28;;;;;;;;;;5179900;27;20125;-71
2021/05/21 09:21:51;;;;;;;4.60;2.12;;;;;;;;;;5179807;27;20076;-71
2021/05/21 09:24:22;;;;;;;6.87;2.53;;;;;;;;;;5180146;27;20516;-71
2021/05/21 09:26:49;;;;;;;2.60;1.75;;;;;;;;;;5160960;27;20073;-71
2021/05/21 09:29:18;;;;;;;3.37;1.75;;;;;;;;;;5181478;27;20094;-71
2021/05/21 09:31:48;;;;;;;1.50;1.40;;;;;;;;;;5163019;27;20172;-71
2021/05/21 09:34:29;;;;;;;3.00;2.25;;;;;;;;;;5182203;27;20078;-70
2021/05/21 09:36:55;;;;;;;0.90;0.90;;;;;;;;;;5165728;27;20077;-71
2021/05/21 09:39:21;;;;;;;2.30;2.00;;;;;;;;;;5182316;27;20089;-71
2021/05/21 09:41:49;;;;;;;5.15;2.00;;;;;;;;;;5180614;27;20082;-72
2021/05/21 09:44:16;;;;;;;3.65;1.80;;;;;;;;;;5163447;27;20493;-71
2021/05/21 09:46:43;;;;;;;6.87;1.60;;;;;;;;;;5162985;27;20177;-71
2021/05/21 09:49:26;;;;;;;2.90;2.15;;;;;;;;;;5182617;27;20066;-71
2021/05/21 09:51:52;;;;;;;2.35;1.80;;;;;;;;;;5182703;27;20073;-71
2021/05/21 09:54:19;;;;;;;2.50;1.87;;;;;;;;;;5163075;27;20096;-70
2021/05/21 09:57:03;;;;;;;2.55;1.95;;;;;;;;;;5182203;27;20086;-71
2021/05/21 09:59:37;;;;;;;3.80;2.20;;;;;;;;;;5182237;27;20105;-71
2021/05/21 10:02:20;;;;;;;5.07;1.80;;;;;;;;;;5182091;27;20097;-71
2021/05/21 10:04:46;;;;;;;2.12;1.90;;;;;;;;;;5182232;27;20058;-71
2021/05/21 10:07:13;;;;;;;1.15;1.15;;;;;;;;;;5182025;27;20504;-71
2021/05/21 10:09:39;;;;;;;2.92;1.90;;;;;;;;;;5182582;27;20183;-71
2021/05/21 10:12:09;;;;;;;3.25;1.70;;;;;;;;;;5163236;27;20098;-70
2021/05/21 10:14:35;;;;;;;1.60;1.50;;;;;;;;;;5182223;27;20078;-71
2021/05/21 10:17:01;;;;;;;2.42;2.22;;;;;;;;;;5182018;27;20104;-69
2021/05/21 10:19:27;;;;;;;1.30;1.20;;;;;;;;;;5182169;27;20407;-70
2021/05/21 10:21:56;;;;;;;1.02;1.02;;;;;;;;;;5180527;27;20572;-71
2021/05/21 10:24:23;;;;;;;5.18;1.10;;;;;;;;;;5163176;27;20524;-71
2021/05/21 10:26:53;;;;;;;6.90;2.40;;;;;;;;;;5162921;27;20153;-70
2021/05/21 10:29:21;;;;;;;1.70;1.60;;;;;;;;;;5163970;27;20433;-71
2021/05/21 10:31:50;;;;;;;6.28;2.08;;;;;;;;;;5163436;27;20509;-71
2021/05/21 10:34:17;;;;;;;1.40;1.30;;;;;;;;;;5182322;27;20169;-71
2021/05/21 10:36:43;;;;;;;1.80;1.70;;;;;;;;;;5162947;27;20096;-71
2021/05/21 10:39:10;;;;;;;2.47;1.30;;;;;;;;;;5182051;27;20085;-71
2021/05/21 10:41:57;;;;;;;1.35;1.25;;;;;;;;;;5161830;27;20477;-70
2021/05/21 10:44:29;;;;;;;7.87;1.80;;;;;;;;;;5180553;27;20086;-71
2021/05/21 10:47:17;;;;;;;1.50;1.40;;;;;;;;;;5181063;27;20088;-70
2021/05/21 10:49:52;;;;;;;2.97;1.25;;;;;;;;;;5181204;27;20171;-71
2021/05/21 10:52:18;;;;;;;1.30;1.30;;;;;;;;;;5181016;27;20105;-71
2021/05/21 10:54:48;;;;;;;2.08;1.87;;;;;;;;;;5181184;27;20093;-71
2021/05/21 10:57:18;;;;;;;1.52;1.42;;;;;;;;;;5162264;27;20096;-72
2021/05/21 10:59:58;;;;;;;1.80;1.70;;;;;;;;;;5181065;27;20101;-69
2021/05/21 11:02:25;;;;;;;10.35;2.67;;;;;;;;;;5180784;27;20149;-69
2021/05/21 11:04:52;;;;;;;1.50;1.40;;;;;;;;;;5181190;27;20085;-70
2021/05/21 11:07:43;;;;;;;3.33;1.23;;;;;;;;;;5181182;27;20086;-70
2021/05/21 11:10:25;;;;;;;4.20;2.05;;;;;;;;;;5168519;27;20532;-70
2021/05/21 11:12:59;;;;;;;2.15;1.50;;;;;;;;;;5161909;27;20449;-70
2021/05/21 11:15:47;;;;;;;1.25;1.20;;;;;;;;;;5127635;27;20175;-70
2021/05/21 11:18:16;;;;;;;1.65;1.55;;;;;;;;;;5161949;27;20069;-70
2021/05/21 11:20:57;;;;;;;3.90;1.85;;;;;;;;;;5180850;27;20084;-71
2021/05/21 11:23:53;;;;;;;3.37;1.80;;;;;;;;;;5182278;27;20094;-70
2021/05/21 11:26:20;;;;;;;4.18;1.70;;;;;;;;;;5163554;27;20062;-70
2021/05/21 11:28:57;;;;;;;1.65;1.37;;;;;;;;;;5182457;27;20513;-70
2021/05/21 11:31:30;;;;;;;2.70;1.50;;;;;;;;;;5181924;27;20082;-70
2021/05/21 11:33:59;;;;;;;2.12;1.90;;;;;;;;;;5163140;27;20078;-68
2021/05/21 11:36:25;;;;;;;2.53;1.70;;;;;;;;;;5180801;27;20513;-68
2021/05/21 11:38:51;;;;;;;2.72;1.37;;;;;;;;;;5180736;27;20086;-69
2021/05/21 11:41:18;;;;;;;1.52;1.42;;;;;;;;;;5180498;27;20093;-69
2021/05/21 11:43:45;;;;;;;5.50;1.73;;;;;;;;;;5180593;27;20074;-70
2021/05/21 11:46:13;;;;;;;1.30;1.30;;;;;;;;;;5180471;27;20524;-70
2021/05/21 11:48:40;;;;;;;1.48;1.30;;;;;;;;;;5180991;27;20061;-69
2021/05/21 11:51:12;;;;;;;1.50;1.40;;;;;;;;;;5180769;27;20090;-70
2021/05/21 11:53:51;;;;;;;2.72;1.42;;;;;;;;;;5180161;27;20252;-70
2021/05/21 11:56:26;;;;;;;3.87;1.67;;;;;;;;;;5180382;27;20074;-70
2021/05/21 11:58:59;;;;;;;1.73;1.62;;;;;;;;;;5180578;27;20088;-71
2021/05/21 12:01:25;;;;;;;1.65;1.10;;;;;;;;;;5178779;27;20067;-70
2021/05/21 12:03:51;;;;;;;3.85;2.33;;;;;;;;;;5161302;27;20070;-71
2021/05/21 12:06:17;;;;;;;0.90;0.90;;;;;;;;;;5180228;27;20094;-71
2021/05/21 12:08:51;;;;;;;1.50;1.40;;;;;;;;;;5180408;27;20086;-71
2021/05/21 12:11:17;;;;;;;1.55;1.23;;;;;;;;;;5161435;27;20516;-71
2021/05/21 12:13:43;;;;;;;1.42;1.33;;;;;;;;;;5144218;27;20081;-71
2021/05/21 12:16:09;;;;;;;1.23;1.15;;;;;;;;;;5180323;27;20182;-68
2021/05/21 12:18:35;;;;;;;2.62;1.90;;;;;;;;;;5180304;27;20137;-69
2021/05/21 12:21:01;;;;;;;1.42;1.33;;;;;;;;;;5180148;27;20094;-68
2021/05/21 12:23:39;;;;;;;2.90;1.20;;;;;;;;;;5180435;27;20301;-68
2021/05/21 12:26:11;;;;;;;0.90;0.90;;;;;;;;;;5161135;27;20101;-69
2021/05/21 12:28:37;;;;;;;1.73;1.42;;;;;;;;;;5118252;27;20067;-68
2021/05/21 12:31:04;;;;;;;1.75;1.27;;;;;;;;;;5136292;27;20265;-69
2021/05/21 12:33:33;;;;;;;1.10;1.10;;;;;;;;;;5140586;27;20263;-69
2021/05/21 12:36:15;;;;;;;2.70;1.80;;;;;;;;;;5123662;27;20085;-68
2021/05/21 12:38:56;;;;;;;6.75;1.58;;;;;;;;;;5159479;27;20481;-68
2021/05/21 12:41:31;;;;;;;1.92;1.45;;;;;;;;;;5159192;27;20116;-69
2021/05/21 12:44:12;;;;;;;1.30;1.20;;;;;;;;;;5158927;27;20415;-69
2021/05/21 12:47:00;;;;;;;1.73;1.62;;;;;;;;;;5159079;27;20074;-68
2021/05/21 12:49:30;;;;;;;1.87;1.65;;;;;;;;;;5159331;27;20078;-68
2021/05/21 12:52:02;;;;;;;1.45;1.20;;;;;;;;;;5140218;27;20506;-68
2021/05/21 12:54:30;;;;;;;1.60;1.48;;;;;;;;;;5140677;27;20097;-68
2021/05/21 12:57:07;;;;;;;1.35;1.25;;;;;;;;;;5140859;27;20086;-68
2021/05/21 12:59:45;;;;;;;4.82;2.20;;;;;;;;;;5159109;27;20066;-68
2021/05/21 13:02:12;;;;;;;1.27;1.17;;;;;;;;;;5159129;27;20240;-68
2021/05/21 13:04:38;;;;;;;4.07;1.80;;;;;;;;;;5158904;27;20097;-69
2021/05/21 13:07:04;;;;;;;1.27;1.12;;;;;;;;;;5158997;27;20093;-68
2021/05/21 13:09:31;;;;;;;3.30;1.62;;;;;;;;;;5159217;27;20494;-69
2021/05/21 13:12:01;;;;;;;1.45;1.35;;;;;;;;;;5159100;27;20062;-69
2021/05/21 13:14:29;;;;;;;2.00;1.45;;;;;;;;;;5140194;27;20165;-69
2021/05/21 13:16:57;;;;;;;1.25;1.15;;;;;;;;;;5159275;27;20112;-68
2021/05/21 13:19:32;;;;;;;1.80;1.70;;;;;;;;;;5140174;27;20116;-69
2021/05/21 13:22:15;;;;;;;1.50;1.40;;;;;;;;;;5159040;27;20096;-68
2021/05/21 13:24:42;;;;;;;2.72;2.08;;;;;;;;;;5158965;27;20164;-68
2021/05/21 13:27:08;;;;;;;3.08;1.55;;;;;;;;;;5164999;27;20411;-68
2021/05/21 13:29:33;;;;;;;1.92;1.70;;;;;;;;;;5161089;27;20085;-68
2021/05/21 13:31:59;;;;;;;1.67;1.58;;;;;;;;;;5179779;27;20182;-68
2021/05/21 13:34:26;;;;;;;3.10;1.60;;;;;;;;;;5180920;27;20149;-67
2021/05/21 13:36:52;;;;;;;0.95;0.95;;;;;;;;;;5161303;27;20098;-68
2021/05/21 13:39:18;;;;;;;0.80;0.80;;;;;;;;;;5179884;27;20248;-67
2021/05/21 13:41:43;;;;;;;2.08;1.67;;;;;;;;;;5179805;27;20061;-68
2021/05/21 13:44:09;;;;;;;1.60;1.50;;;;;;;;;;5179850;27;20076;-68
2021/05/21 13:46:35;;;;;;;2.33;1.70;;;;;;;;;;5179684;27;20488;-68
2021/05/21 13:49:01;;;;;;;2.12;1.90;;;;;;;;;;5179957;27;20082;-68
2021/05/21 13:51:27;;;;;;;1.58;1.30;;;;;;;;;;5180246;27;20096;-68
2021/05/21 13:53:53;;;;;;;1.95;1.23;;;;;;;;;;5143958;27;20181;-68
2021/05/21 13:56:19;;;;;;;2.20;1.70;;;;;;;;;;5179753;27;20437;-68
2021/05/21 13:58:45;;;;;;;3.40;2.15;;;;;;;;;;5179742;27;20109;-68
2021/05/21 14:01:11;;;;;;;3.90;2.00;;;;;;;;;;5179789;27;20320;-69
2021/05/21 14:03:37;;;;;;;2.17;1.60;;;;;;;;;;5180068;27;20172;-69
2021/05/21 14:06:05;;;;;;;2.72;1.87;;;;;;;;;;5179676;27;20062;-68
2021/05/21 14:08:31;;;;;;;4.30;2.30;;;;;;;;;;5179807;27;20560;-68
2021/05/21 14:10:57;;;;;;;1.75;1.65;;;;;;;;;;5143545;27;20117;-69
2021/05/21 14:13:23;;;;;;;2.30;2.10;;;;;;;;;;5160876;27;20090;-69
2021/05/21 14:15:49;;;;;;;3.97;2.15;;;;;;;;;;5161165;27;20094;-68
2021/05/21 14:18:15;;;;;;;8.68;2.25;;;;;;;;;;5180960;27;20086;-68
2021/05/21 14:20:41;;;;;;;2.53;1.70;;;;;;;;;;5181165;27;20098;-67
2021/05/21 14:23:08;;;;;;;12.00;2.10;;;;;;;;;;5180882;27;20180;-68
2021/05/21 14:25:35;;;;;;;4.60;2.10;;;;;;;;;;5179535;27;20142;-67
2021/05/21 14:28:01;;;;;;;8.05;2.30;;;;;;;;;;5144896;27;20513;-68
2021/05/21 14:30:27;;;;;;;6.20;2.55;;;;;;;;;;5162128;27;20505;-68
2021/05/21 14:32:56;;;;;;;2.90;2.65;;;;;;;;;;5181050;27;20520;-66
2021/05/21 14:35:22;;;;;;;8.20;2.17;;;;;;;;;;5162531;27;20122;-68
2021/05/21 14:37:48;;;;;;;6.15;1.83;;;;;;;;;;5162144;27;20176;-68
2021/05/21 14:40:14;;;;;;;6.97;3.03;;;;;;;;;;5181481;27;20397;-68
2021/05/21 14:42:41;;;;;;;5.50;2.53;;;;;;;;;;5180972;27;20160;-68
2021/05/21 14:45:08;;;;;;;4.65;2.17;;;;;;;;;;5181275;27;20433;-67
2021/05/21 14:47:34;;;;;;;11.15;3.53;;;;;;;;;;5180909;27;20098;-68
2021/05/21 14:50:00;;;;;;;3.95;2.70;;;;;;;;;;5161828;27;20100;-67
2021/05/21 14:52:27;;;;;;;6.60;2.87;;;;;;;;;;5180936;27;20074;-69
2021/05/21 14:54:53;;;;;;;5.68;2.60;;;;;;;;;;5162193;27;20080;-69
2021/05/21 14:57:24;;;;;;;5.80;3.17;;;;;;;;;;5127401;27;20074;-68
2021/05/21 14:59:51;;;;;;;9.02;3.42;;;;;;;;;;5181043;27;20081;-68
2021/05/21 15:02:21;;;;;;;6.90;2.72;;;;;;;;;;5161843;27;20504;-67
2021/05/21 15:04:53;;;;;;;12.32;3.67;;;;;;;;;;5161924;27;20090;-67
2021/05/21 15:07:19;;;;;;;9.25;3.22;;;;;;;;;;5145020;27;20076;-68
2021/05/21 15:09:48;;;;;;;8.52;3.08;;;;;;;;;;5181270;27;20382;-68
2021/05/21 15:12:15;;;;;;;11.57;3.62;;;;;;;;;;5180816;27;20094;-68
2021/05/21 15:14:41;;;;;;;4.47;3.50;;;;;;;;;;5180815;27;20093;-68